createdAt,value
2023-06-07T00:02:51.293Z,75.92753452259629
2023-06-07T00:09:14.565Z,76.0242477465863
2023-06-07T00:15:36.201Z,76.59039198413186
2023-06-07T00:23:48.768Z,76.74764229333702
2023-06-07T00:31:05.890Z,76.96458291037091
2023-06-07T00:43:49.230Z,77.35364425207624
2023-06-07T01:04:48.149Z,77.83597190507868
2023-06-07T01:11:07.403Z,78.00751623757647
2023-06-07T01:17:29.760Z,77.89528809590267
2023-06-07T01:23:51.872Z,78.17365623098357
2023-06-07T01:30:16.616Z,78.19821193230148
2023-06-07T01:36:41.674Z,78.39423724246592
2023-06-07T01:43:06.140Z,78.40959660925746
2023-06-07T01:49:29.608Z,78.90217756635424
2023-06-07T01:59:18.418Z,78.87712527355744
2023-06-07T02:05:42.150Z,79.07553023527544
2023-06-07T02:12:04.597Z,78.40877484946522
2023-06-07T02:18:27.406Z,78.84796220062817
2023-06-07T02:24:50.420Z,79.26047079706315
2023-06-07T02:36:40.844Z,79.36038111667699
2023-06-07T02:43:03.840Z,79.57203200171132
2023-06-07T02:57:04.263Z,80.0596032039222
2023-06-07T03:03:25.783Z,80.34909248131711
2023-06-07T03:09:46.677Z,79.95815982952226
2023-06-07T03:16:12.506Z,80.24264004757073
2023-06-07T03:23:44.465Z,80.0467954775023
2023-06-07T03:30:10.492Z,80.05744446572764
2023-06-07T03:36:36.176Z,79.61786154677361
2023-06-07T03:43:00.140Z,79.96456572567175
2023-06-07T03:49:23.563Z,80.04019687107834
2023-06-07T03:55:48.836Z,80.13387152931892
2023-06-07T04:05:13.324Z,79.89614139994576
2023-06-07T04:19:13.414Z,79.47913163643352
2023-06-07T04:25:36.919Z,79.65614362516511
2023-06-07T04:33:53.263Z,79.51566883681612
2023-06-07T04:40:19.153Z,79.39029657116153
2023-06-07T04:48:06.400Z,78.92429361319937
2023-06-07T04:54:32.654Z,78.2999032773691
2023-06-07T05:01:02.580Z,78.23475267704205
2023-06-07T05:07:30.570Z,77.51288852099859
2023-06-07T05:15:29.285Z,78.22559192858768
2023-06-07T05:25:53.397Z,77.63542582699154
2023-06-07T05:40:12.208Z,76.30718850725776
2023-06-07T05:46:36.494Z,75.83016114654423
2023-06-07T05:53:00.700Z,75.82249232144373
2023-06-07T05:59:24.196Z,75.80470080295555
2023-06-07T06:06:49.822Z,75.05946053539903
2023-06-07T06:13:12.990Z,74.7630400787531
2023-06-07T06:19:39.621Z,74.23454488726944
2023-06-07T06:26:04.044Z,74.00793822335694
2023-06-07T06:36:01.293Z,72.59580634969187
2023-06-07T06:49:53.423Z,71.052169826148
2023-06-07T06:56:16.880Z,70.5374950619584
2023-06-07T07:02:38.482Z,69.47781795061532
2023-06-07T07:09:00.958Z,68.31798170905455
2023-06-07T07:15:34.157Z,66.54298460795405
2023-06-07T07:21:57.246Z,65.83444745769643
2023-06-07T07:31:29.358Z,64.83460320919119
2023-06-07T07:37:54.388Z,64.74246991511275
2023-06-07T07:44:23.296Z,65.01157399903258
2023-06-07T07:54:49.084Z,62.514146280171595
2023-06-07T08:01:13.560Z,61.218104468847024
2023-06-07T08:07:38.693Z,60.79950697951869
2023-06-07T08:14:03.374Z,59.77814138589986
2023-06-07T08:20:28.087Z,59.08892992862494
2023-06-07T08:26:51.984Z,58.76195276029017
2023-06-07T08:35:05.698Z,57.84333335536116
2023-06-07T08:47:30.231Z,55.896792079388476
2023-06-07T08:53:53.452Z,56.44601366290719
2023-06-07T09:00:16.249Z,56.618468464948464
2023-06-07T09:10:39.650Z,56.11037445061872
2023-06-07T09:18:57.515Z,55.60519459750619
2023-06-07T09:25:26.171Z,54.78584775197322
2023-06-07T09:31:52.351Z,54.24789256529134
2023-06-07T09:48:46.614Z,53.289915287336484
2023-06-07T09:55:10.832Z,52.64586123244455
2023-06-07T10:06:13.234Z,51.78278447915424
2023-06-07T10:12:37.189Z,51.11639442390793
2023-06-07T10:19:00.127Z,51.0388841406188
2023-06-07T10:28:55.843Z,50.27212667812258
2023-06-07T10:38:21.017Z,48.92842973925536
2023-06-07T10:44:47.054Z,48.947455897053054
2023-06-07T10:51:11.893Z,48.03223259638229
2023-06-07T10:57:37.130Z,47.99695036233512
2023-06-07T11:04:02.572Z,47.87007283050679
2023-06-07T11:16:24.538Z,46.75164279073282
2023-06-07T11:24:53.761Z,46.94491503689091
2023-06-07T11:31:18.021Z,46.51033709599746
2023-06-07T11:37:42.139Z,46.14240459889536
2023-06-07T11:44:06.405Z,45.13719774863625
2023-06-07T11:50:30.960Z,45.19263650735209
2023-06-07T12:00:31.140Z,45.499576818906434
2023-06-07T12:06:55.219Z,44.675976983702554
2023-06-07T12:13:19.276Z,44.334383586651036
2023-06-07T12:19:43.619Z,43.8753473924964
2023-06-07T12:26:07.731Z,44.69914386958959
2023-06-07T12:32:32.260Z,43.77895825262922
2023-06-07T12:38:56.317Z,44.43217306707914
2023-06-07T12:45:20.154Z,43.363892151744814
2023-06-07T12:51:44.106Z,44.60152232682922
2023-06-07T12:58:08.599Z,44.02042045285857
2023-06-07T13:06:03.612Z,44.07804030318997
2023-06-07T13:12:27.341Z,44.63416268572483
2023-06-07T13:18:51.909Z,44.7902685826148
2023-06-07T13:25:43.861Z,45.1614179790063
2023-06-07T13:32:07.919Z,45.28000308711742
2023-06-07T13:45:05.525Z,45.85971724255448
2023-06-07T13:51:28.734Z,45.70753811065818
2023-06-07T14:03:20.554Z,46.37516096073166
2023-06-07T14:09:45.333Z,46.30333343520184
2023-06-07T14:16:10.139Z,46.37379695613245
2023-06-07T14:23:44.946Z,46.12042046328381
2023-06-07T14:30:09.397Z,46.900176900712765
2023-06-07T14:41:37.591Z,46.684834025659384
2023-06-07T14:57:10.042Z,46.59070949946326
2023-06-07T15:03:39.716Z,47.030019865940176
2023-06-07T15:10:03.460Z,47.527565466737244
2023-06-07T15:16:27.727Z,47.89872099495447
2023-06-07T15:23:51.157Z,48.09439203421992
2023-06-07T15:30:15.464Z,47.92547233768165
2023-06-07T15:36:38.198Z,48.10847428339199
2023-06-07T15:43:00.790Z,48.27146821691893
2023-06-07T15:50:36.501Z,48.6074314157486
2023-06-07T15:56:59.369Z,48.9694730006769
2023-06-07T16:07:39.948Z,49.54834464721932
2023-06-07T16:14:03.189Z,50.06286101800883
2023-06-07T16:20:26.478Z,49.76668631292267
2023-06-07T16:26:51.172Z,50.45393923467856
2023-06-07T16:33:16.414Z,50.965388875179336
2023-06-07T16:39:40.576Z,50.900289883038546
2023-06-07T16:46:02.944Z,51.20858477283478
2023-06-07T16:54:49.803Z,51.44081024578635
2023-06-07T17:09:08.158Z,51.20616485690291
2023-06-07T17:15:32.441Z,50.89225118013476
2023-06-07T17:21:57.764Z,51.22965034988431
2023-06-07T17:28:20.389Z,50.875846904263035
2023-06-07T17:34:42.518Z,51.33129363689016
2023-06-07T17:41:04.049Z,50.741255926374656
2023-06-07T17:47:27.022Z,51.22409661564991
2023-06-07T17:53:51.410Z,51.206225836607054
2023-06-07T18:00:14.525Z,52.23552050506378
2023-06-07T18:06:37.731Z,52.68188798234792
2023-06-07T18:16:31.302Z,54.24111503886897
2023-06-07T18:33:17.093Z,56.86323537705539
2023-06-07T18:39:39.425Z,57.45185322446073
2023-06-07T18:46:01.812Z,58.63403646402134
2023-06-07T18:52:24.822Z,59.466135973125006
2023-06-07T19:04:37.770Z,60.17497456991392
2023-06-07T19:11:00.627Z,61.23768369986402
2023-06-07T19:17:24.904Z,61.312655317888485
2023-06-07T19:29:11.103Z,62.24956099339971
2023-06-07T19:35:33.763Z,62.6887108694517
2023-06-07T19:44:54.671Z,63.86806459320474
2023-06-07T19:51:14.708Z,64.23440718401281
2023-06-07T19:57:34.825Z,64.73912901547463
2023-06-07T20:03:54.721Z,65.50324159335864
2023-06-07T20:10:14.925Z,66.26655278259723
2023-06-07T20:16:36.003Z,66.71866723131087
2023-06-07T20:22:55.336Z,67.32025103308384
2023-06-07T20:29:17.890Z,67.94346398227135
2023-06-07T20:35:42.455Z,68.36844540563318
2023-06-07T20:48:20.922Z,68.75326691254804
2023-06-07T20:54:44.050Z,69.42600152131901
2023-06-07T21:01:06.031Z,69.47895706232934
2023-06-07T21:16:35.346Z,70.2086758164711
2023-06-07T21:22:58.239Z,70.51033465794794
2023-06-07T21:29:17.920Z,70.7636106474404
2023-06-07T21:35:38.420Z,70.93900454588571
2023-06-07T21:43:01.924Z,71.74373587102848
2023-06-07T21:49:20.616Z,71.85161894631516
2023-06-07T22:00:19.922Z,72.38395418517904
2023-06-07T22:06:41.016Z,72.85210716998017
2023-06-07T22:12:59.835Z,73.09375749026879
2023-06-07T22:19:19.216Z,73.60079607104834
2023-06-07T22:25:41.805Z,73.35636917787308
2023-06-07T22:32:02.036Z,73.70579170844437
2023-06-07T22:38:23.608Z,73.4865845098769
2023-06-07T22:44:42.707Z,74.10350681330054
2023-06-07T22:56:51.515Z,74.29755991599694
2023-06-07T23:03:11.244Z,74.81622991366329
2023-06-07T23:09:30.641Z,75.25486672607772
2023-06-07T23:15:49.688Z,75.74374964796088
2023-06-07T23:22:08.848Z,75.29904228933557
2023-06-07T23:32:03.107Z,76.3358098916509
2023-06-07T23:38:22.728Z,76.6073949402014
2023-06-07T23:50:28.877Z,76.50793262256882
2023-06-07T23:56:47.739Z,76.82991225030776
